Time;durP1;ratioP1;P1;durP2;ratioP2;P2;SDS_P1;SDS_P2;PMS_P1;PMS_P2;Temp;Humidity;BMP_temperature;BMP_pressure;BME280_temperature;BME280_humidity;BME280_pressure;Samples;Min_cycle;Max_cycle;Signal;HPM_P1;HPM_P2
2023/01/15 00:01:37;;;;;;;;;;;;;;;;;;5079391;28;20293;-81
2023/01/15 00:04:09;;;;;;;;;;;;;;;;;;5100696;28;19924;-80
2023/01/15 00:06:37;;;;;;;;;;;;;;;;;;5072885;28;19931;-83
2023/01/15 00:09:10;;;;;;;;;;;;;;;;;;5087302;28;20750;-80
2023/01/15 00:11:37;;;;;;;;;;;;;;;;;;5083555;28;19924;-82
2023/01/15 00:14:05;;;;;;;;;;;;;;;;;;5088800;28;19932;-81
2023/01/15 00:16:32;;;;;;;;;;;;;;;;;;5089877;28;19928;-80
2023/01/15 00:19:00;;;;;;;;;;;;;;;;;;5083769;28;19932;-81
2023/01/15 00:21:27;;;;;;;;;;;;;;;;;;5079490;28;19928;-80
2023/01/15 00:29:30;;;;;;;;;;;;;;;;;;5076255;28;19924;-82
2023/01/15 00:31:58;;;;;;;;;;;;;;;;;;5069172;28;19925;-81
2023/01/15 00:34:25;;;;;;;;;;;;;;;;;;5087379;28;20296;-80
2023/01/15 00:36:53;;;;;;;;;;;;;;;;;;5081685;28;19929;-81
2023/01/15 00:39:20;;;;;;;;;;;;;;;;;;5092193;28;20407;-80
2023/01/15 00:41:48;;;;;;;;;;;;;;;;;;5081348;28;19931;-81
2023/01/15 00:44:20;;;;;;;;;;;;;;;;;;5086771;28;19949;-80
2023/01/15 00:46:48;;;;;;;;;;;;;;;;;;5083560;28;19931;-81
2023/01/15 00:49:15;;;;;;;;;;;;;;;;;;5074736;28;19925;-82
2023/01/15 00:51:49;;;;;;;;;;;;;;;;;;5079290;28;19925;-81
2023/01/15 00:54:22;;;;;;;;;;;;;;;;;;5085751;28;19931;-81
2023/01/15 00:56:49;;;;;;;;;;;;;;;;;;5103342;28;19925;-81
2023/01/15 00:59:17;;;;;;;;;;;;;;;;;;5081179;28;19928;-81
2023/01/15 01:01:51;;;;;;;;;;;;;;;;;;5084234;28;19924;-80
2023/01/15 01:04:19;;;;;;;;;;;;;;;;;;5088925;28;19932;-80
2023/01/15 01:06:46;;;;;;;;;;;;;;;;;;5082178;28;19924;-81
2023/01/15 01:09:14;;;;;;;;;;;;;;;;;;5081272;28;19936;-80
2023/01/15 01:11:41;;;;;;;;;;;;;;;;;;5089051;28;20380;-80
2023/01/15 01:14:09;;;;;;;;;;;;;;;;;;5089764;28;19925;-80
2023/01/15 01:16:42;;;;;;;;;;;;;;;;;;5079444;28;19925;-80
2023/01/15 01:19:10;;;;;;;;;;;;;;;;;;5084489;28;19928;-81
2023/01/15 01:21:37;;;;;;;;;;;;;;;;;;5076874;28;19932;-81
2023/01/15 01:24:05;;;;;;;;;;;;;;;;;;5080110;28;19924;-80
2023/01/15 01:26:33;;;;;;;;;;;;;;;;;;5090991;28;19931;-81
2023/01/15 01:29:00;;;;;;;;;;;;;;;;;;5085929;28;20288;-81
2023/01/15 01:31:28;;;;;;;;;;;;;;;;;;5086565;28;21289;-82
2023/01/15 01:33:55;;;;;;;;;;;;;;;;;;5080654;28;19925;-80
2023/01/15 01:36:23;;;;;;;;;;;;;;;;;;5079074;28;19924;-81
2023/01/15 01:38:50;;;;;;;;;;;;;;;;;;5087182;28;20299;-81
2023/01/15 01:41:18;;;;;;;;;;;;;;;;;;5090983;28;19935;-80
2023/01/15 01:43:53;;;;;;;;;;;;;;;;;;5078126;28;19932;-80
2023/01/15 01:46:21;;;;;;;;;;;;;;;;;;5083139;28;19924;-81
2023/01/15 01:48:53;;;;;;;;;;;;;;;;;;5077442;28;19928;-81
2023/01/15 01:51:21;;;;;;;;;;;;;;;;;;5086902;28;20368;-83
2023/01/15 01:53:48;;;;;;;;;;;;;;;;;;5086574;28;19925;-80
2023/01/15 01:56:16;;;;;;;;;;;;;;;;;;5071083;28;19924;-80
2023/01/15 01:58:44;;;;;;;;;;;;;;;;;;5080769;28;19943;-81
2023/01/15 02:01:11;;;;;;;;;;;;;;;;;;5086177;28;19995;-80
2023/01/15 02:03:39;;;;;;;;;;;;;;;;;;5079954;28;19924;-80
2023/01/15 02:06:09;;;;;;;;;;;;;;;;;;5088174;28;19931;-81
2023/01/15 02:08:38;;;;;;;;;;;;;;;;;;5081428;28;19925;-80
2023/01/15 02:11:05;;;;;;;;;;;;;;;;;;5084817;28;19925;-81
2023/01/15 02:13:33;;;;;;;;;;;;;;;;;;5084132;28;20304;-80
2023/01/15 02:16:01;;;;;;;;;;;;;;;;;;5076781;28;19929;-81
2023/01/15 02:18:28;;;;;;;;;;;;;;;;;;5078529;28;19928;-80
2023/01/15 02:20:56;;;;;;;;;;;;;;;;;;5083832;28;19924;-80
2023/01/15 02:23:24;;;;;;;;;;;;;;;;;;5081127;28;19924;-80
2023/01/15 02:25:51;;;;;;;;;;;;;;;;;;5091571;28;19924;-80
2023/01/15 02:28:19;;;;;;;;;;;;;;;;;;5092357;28;19935;-80
2023/01/15 02:30:46;;;;;;;;;;;;;;;;;;5084997;28;20373;-80
2023/01/15 02:33:14;;;;;;;;;;;;;;;;;;5091733;28;20030;-81
2023/01/15 02:35:47;;;;;;;;;;;;;;;;;;5074886;28;20283;-81
2023/01/15 02:38:14;;;;;;;;;;;;;;;;;;5087254;28;19931;-81
2023/01/15 02:40:50;;;;;;;;;;;;;;;;;;5083657;28;19931;-79
2023/01/15 02:43:20;;;;;;;;;;;;;;;;;;5091444;28;20296;-80
2023/01/15 02:45:47;;;;;;;;;;;;;;;;;;5075320;28;19931;-80
2023/01/15 02:48:20;;;;;;;;;;;;;;;;;;5091434;28;20399;-80
2023/01/15 02:50:47;;;;;;;;;;;;;;;;;;5088377;28;19924;-80
2023/01/15 02:53:20;;;;;;;;;;;;;;;;;;5088586;28;19931;-80
2023/01/15 02:55:54;;;;;;;;;;;;;;;;;;5080788;28;20483;-80
2023/01/15 02:58:31;;;;;;;;;;;;;;;;;;5091193;28;20304;-81
2023/01/15 03:01:04;;;;;;;;;;;;;;;;;;5082463;28;19947;-81
2023/01/15 03:03:31;;;;;;;;;;;;;;;;;;5084687;28;19924;-80
2023/01/15 03:05:59;;;;;;;;;;;;;;;;;;5093016;28;19928;-81
2023/01/15 03:08:31;;;;;;;;;;;;;;;;;;5089436;28;19924;-80
2023/01/15 03:11:05;;;;;;;;;;;;;;;;;;5088647;28;19928;-80
2023/01/15 03:13:43;;;;;;;;;;;;;;;;;;5084467;28;19925;-81
2023/01/15 03:16:33;;;;;;;;;;;;;;;;;;5089981;28;19935;-82
2023/01/15 03:19:01;;;;;;;;;;;;;;;;;;5092027;28;19924;-80
2023/01/15 03:21:28;;;;;;;;;;;;;;;;;;5080327;28;19924;-81
2023/01/15 03:23:56;;;;;;;;;;;;;;;;;;5094423;28;19928;-80
2023/01/15 03:26:25;;;;;;;;;;;;;;;;;;5086997;28;19935;-80
2023/01/15 03:28:54;;;;;;;;;;;;;;;;;;5086784;28;20702;-80
2023/01/15 03:31:22;;;;;;;;;;;;;;;;;;5086028;28;20270;-81
2023/01/15 03:33:49;;;;;;;;;;;;;;;;;;5091001;28;19923;-81
2023/01/15 03:36:23;;;;;;;;;;;;;;;;;;5093543;28;19924;-80
2023/01/15 03:39:00;;;;;;;;;;;;;;;;;;5086501;28;19924;-81
2023/01/15 03:42:02;;;;;;;;;;;;;;;;;;5075600;28;19932;-80
2023/01/15 03:44:31;;;;;;;;;;;;;;;;;;5094030;28;19931;-81
2023/01/15 03:47:00;;;;;;;;;;;;;;;;;;5083813;28;19932;-81
2023/01/15 03:49:27;;;;;;;;;;;;;;;;;;5089046;28;19924;-81
2023/01/15 03:52:05;;;;;;;;;;;;;;;;;;5091433;28;19928;-80
2023/01/15 03:54:36;;;;;;;;;;;;;;;;;;5089384;28;20297;-80
2023/01/15 03:57:03;;;;;;;;;;;;;;;;;;5082883;28;19928;-80
2023/01/15 03:59:31;;;;;;;;;;;;;;;;;;5073366;28;19925;-81
2023/01/15 04:02:04;;;;;;;;;;;;;;;;;;5091110;28;19931;-79
2023/01/15 04:04:31;;;;;;;;;;;;;;;;;;5073372;28;19932;-80
2023/01/15 04:07:00;;;;;;;;;;;;;;;;;;5077116;28;20593;-80
2023/01/15 04:09:28;;;;;;;;;;;;;;;;;;5079000;28;19925;-79
2023/01/15 04:11:58;;;;;;;;;;;;;;;;;;5078726;28;19931;-79
2023/01/15 04:14:25;;;;;;;;;;;;;;;;;;5087038;28;20228;-80
2023/01/15 04:16:58;;;;;;;;;;;;;;;;;;5091831;28;19924;-81
2023/01/15 04:19:26;;;;;;;;;;;;;;;;;;5072400;28;19932;-81
2023/01/15 04:22:01;;;;;;;;;;;;;;;;;;5083521;28;19924;-80
2023/01/15 04:24:28;;;;;;;;;;;;;;;;;;5080408;28;19931;-81
2023/01/15 04:26:56;;;;;;;;;;;;;;;;;;5080597;28;19931;-80
2023/01/15 04:29:25;;;;;;;;;;;;;;;;;;5088557;28;19931;-81
2023/01/15 04:31:56;;;;;;;;;;;;;;;;;;5080595;28;19998;-80
2023/01/15 04:34:23;;;;;;;;;;;;;;;;;;5084055;28;19924;-80
2023/01/15 04:36:51;;;;;;;;;;;;;;;;;;5084173;28;19928;-81
2023/01/15 04:39:18;;;;;;;;;;;;;;;;;;5082002;28;20292;-81
2023/01/15 04:44:31;;;;;;;;;;;;;;;;;;5080681;28;19932;-80
2023/01/15 04:47:04;;;;;;;;;;;;;;;;;;5083927;28;19924;-81
2023/01/15 04:49:36;;;;;;;;;;;;;;;;;;5080273;28;19991;-81
2023/01/15 04:52:04;;;;;;;;;;;;;;;;;;5087100;28;19924;-80
2023/01/15 04:54:32;;;;;;;;;;;;;;;;;;5079026;28;20261;-80
2023/01/15 04:56:59;;;;;;;;;;;;;;;;;;5081353;28;19924;-81
2023/01/15 04:59:26;;;;;;;;;;;;;;;;;;5087724;28;19924;-80
2023/01/15 05:01:59;;;;;;;;;;;;;;;;;;5087776;28;19924;-80
2023/01/15 05:04:26;;;;;;;;;;;;;;;;;;5077821;28;19931;-82
2023/01/15 05:06:59;;;;;;;;;;;;;;;;;;5079736;28;19932;-80
2023/01/15 05:09:26;;;;;;;;;;;;;;;;;;5089606;28;19931;-81
2023/01/15 05:11:54;;;;;;;;;;;;;;;;;;5071562;28;19924;-80
2023/01/15 05:14:26;;;;;;;;;;;;;;;;;;5073378;28;19925;-81
2023/01/15 05:16:54;;;;;;;;;;;;;;;;;;5079910;28;19924;-80
2023/01/15 05:19:21;;;;;;;;;;;;;;;;;;5073181;28;20262;-80
2023/01/15 05:21:54;;;;;;;;;;;;;;;;;;5077958;28;20297;-80
2023/01/15 05:24:26;;;;;;;;;;;;;;;;;;5094611;28;19931;-80
2023/01/15 05:26:56;;;;;;;;;;;;;;;;;;5081650;28;19931;-81
2023/01/15 05:29:24;;;;;;;;;;;;;;;;;;5088087;28;19924;-80
2023/01/15 05:31:51;;;;;;;;;;;;;;;;;;5074534;28;19931;-80
2023/01/15 05:34:19;;;;;;;;;;;;;;;;;;5091306;28;19924;-80
2023/01/15 05:36:46;;;;;;;;;;;;;;;;;;5083592;28;19931;-80
2023/01/15 05:39:14;;;;;;;;;;;;;;;;;;5077874;28;20383;-80
2023/01/15 05:41:51;;;;;;;;;;;;;;;;;;5084995;28;19925;-80
2023/01/15 05:44:19;;;;;;;;;;;;;;;;;;5092323;28;19924;-79
2023/01/15 05:46:51;;;;;;;;;;;;;;;;;;5079347;28;19931;-81
2023/01/15 05:49:24;;;;;;;;;;;;;;;;;;5099387;28;19925;-80
2023/01/15 05:51:51;;;;;;;;;;;;;;;;;;5071969;28;19935;-81
2023/01/15 05:54:19;;;;;;;;;;;;;;;;;;5076899;28;19931;-80
2023/01/15 05:56:51;;;;;;;;;;;;;;;;;;5081769;28;19924;-80
2023/01/15 05:59:19;;;;;;;;;;;;;;;;;;5086630;28;19925;-80
2023/01/15 06:01:51;;;;;;;;;;;;;;;;;;5083299;28;19924;-82
2023/01/15 06:04:20;;;;;;;;;;;;;;;;;;5087255;28;20376;-80
2023/01/15 06:06:47;;;;;;;;;;;;;;;;;;5083717;28;19924;-80
2023/01/15 06:09:15;;;;;;;;;;;;;;;;;;5084413;28;20849;-80
2023/01/15 06:11:42;;;;;;;;;;;;;;;;;;5096721;28;19924;-81
2023/01/15 06:14:10;;;;;;;;;;;;;;;;;;5090050;28;19925;-81
2023/01/15 06:16:37;;;;;;;;;;;;;;;;;;5106657;28;19924;-80
2023/01/15 06:19:10;;;;;;;;;;;;;;;;;;5095097;28;19929;-80
2023/01/15 06:21:42;;;;;;;;;;;;;;;;;;5092864;28;19932;-80
2023/01/15 06:24:15;;;;;;;;;;;;;;;;;;5094046;28;19924;-80
2023/01/15 06:26:48;;;;;;;;;;;;;;;;;;5090337;28;19931;-80
2023/01/15 06:29:17;;;;;;;;;;;;;;;;;;5097545;28;19925;-80
2023/01/15 06:31:45;;;;;;;;;;;;;;;;;;5104137;28;20292;-80
2023/01/15 06:34:12;;;;;;;;;;;;;;;;;;5100522;28;19932;-80
2023/01/15 06:36:40;;;;;;;;;;;;;;;;;;5096884;28;19935;-81
2023/01/15 06:39:07;;;;;;;;;;;;;;;;;;5105055;28;19931;-81
2023/01/15 06:47:22;;;;;;;;;;;;;;;;;;5102722;27;19928;-81
2023/01/15 06:49:54;;;;;;;;;;;;;;;;;;5089312;28;19924;-80
2023/01/15 06:52:27;;;;;;;;;;;;;;;;;;5090577;28;20519;-81
2023/01/15 06:54:54;;;;;;;;;;;;;;;;;;5098742;28;19924;-80
2023/01/15 06:57:27;;;;;;;;;;;;;;;;;;5098086;27;19925;-80
2023/01/15 06:59:59;;;;;;;;;;;;;;;;;;5094560;28;19935;-81
2023/01/15 07:02:27;;;;;;;;;;;;;;;;;;5094309;28;19924;-80
2023/01/15 07:04:54;;;;;;;;;;;;;;;;;;5093649;28;19931;-81
2023/01/15 07:07:22;;;;;;;;;;;;;;;;;;5079729;28;19931;-80
2023/01/15 07:09:49;;;;;;;;;;;;;;;;;;5080048;28;19928;-80
2023/01/15 07:12:17;;;;;;;;;;;;;;;;;;5076254;28;19924;-80
2023/01/15 07:14:44;;;;;;;;;;;;;;;;;;5078151;28;19924;-80
2023/01/15 07:17:12;;;;;;;;;;;;;;;;;;5075610;28;20584;-80
2023/01/15 07:19:39;;;;;;;;;;;;;;;;;;5075641;28;19928;-81
2023/01/15 07:22:07;;;;;;;;;;;;;;;;;;5073984;28;19925;-80
2023/01/15 07:24:34;;;;;;;;;;;;;;;;;;5079772;28;20400;-80
2023/01/15 07:27:02;;;;;;;;;;;;;;;;;;5081986;28;20265;-80
2023/01/15 07:29:29;;;;;;;;;;;;;;;;;;5089796;28;19928;-80
2023/01/15 07:31:57;;;;;;;;;;;;;;;;;;5080844;28;19931;-81
2023/01/15 07:34:29;;;;;;;;;;;;;;;;;;5090037;28;19928;-82
2023/01/15 07:36:57;;;;;;;;;;;;;;;;;;5091059;28;20377;-80
2023/01/15 07:39:30;;;;;;;;;;;;;;;;;;5087355;28;19958;-81
2023/01/15 07:50:22;;;;;;;;;;;;;;;;;;5093827;28;20650;-80
2023/01/15 07:52:49;;;;;;;;;;;;;;;;;;5074912;28;20360;-80
2023/01/15 07:55:17;;;;;;;;;;;;;;;;;;5075406;28;19925;-80
2023/01/15 07:57:49;;;;;;;;;;;;;;;;;;5087434;28;19934;-80
2023/01/15 08:00:17;;;;;;;;;;;;;;;;;;5093814;28;20303;-80
2023/01/15 08:02:48;;;;;;;;;;;;;;;;;;5089933;28;19924;-80
2023/01/15 08:05:16;;;;;;;;;;;;;;;;;;5082220;28;20532;-81
2023/01/15 08:07:44;;;;;;;;;;;;;;;;;;5085707;28;19928;-80
2023/01/15 08:10:11;;;;;;;;;;;;;;;;;;5088034;28;19924;-81
2023/01/15 08:15:29;;;;;;;;;;;;;;;;;;5090709;28;19931;-80
2023/01/15 08:18:02;;;;;;;;;;;;;;;;;;5093150;28;19924;-81
2023/01/15 08:20:34;;;;;;;;;;;;;;;;;;5089845;28;19925;-81
2023/01/15 08:23:08;;;;;;;;;;;;;;;;;;5090061;28;19925;-79
2023/01/15 08:25:37;;;;;;;;;;;;;;;;;;5097299;28;20418;-81
2023/01/15 08:28:05;;;;;;;;;;;;;;;;;;5088491;28;19931;-80
2023/01/15 08:30:32;;;;;;;;;;;;;;;;;;5091440;28;19928;-80
2023/01/15 08:33:05;;;;;;;;;;;;;;;;;;5079627;28;19924;-80
2023/01/15 08:35:34;;;;;;;;;;;;;;;;;;5083348;28;19925;-81
2023/01/15 08:38:06;;;;;;;;;;;;;;;;;;5082931;28;19927;-81
2023/01/15 08:40:57;;;;;;;;;;;;;;;;;;5084792;28;19936;-81
2023/01/15 08:43:24;;;;;;;;;;;;;;;;;;5087452;28;19931;-82
2023/01/15 08:45:52;;;;;;;;;;;;;;;;;;5087795;28;19931;-80
2023/01/15 08:48:20;;;;;;;;;;;;;;;;;;5081265;28;19932;-81
2023/01/15 08:50:52;;;;;;;;;;;;;;;;;;5095997;28;19928;-80
2023/01/15 08:53:20;;;;;;;;;;;;;;;;;;5086341;28;19924;-82
2023/01/15 08:55:47;;;;;;;;;;;;;;;;;;5092249;28;20296;-80
2023/01/15 08:58:15;;;;;;;;;;;;;;;;;;5083024;28;19925;-80
2023/01/15 09:00:42;;;;;;;;;;;;;;;;;;5078827;28;19935;-81
2023/01/15 09:03:10;;;;;;;;;;;;;;;;;;5084927;28;19924;-80
2023/01/15 09:05:42;;;;;;;;;;;;;;;;;;5097850;28;19931;-80
2023/01/15 09:08:10;;;;;;;;;;;;;;;;;;5088573;28;20293;-80
2023/01/15 09:10:37;;;;;;;;;;;;;;;;;;5079908;27;19931;-81
2023/01/15 09:13:05;;;;;;;;;;;;;;;;;;5087433;28;19931;-82
2023/01/15 09:15:32;;;;;;;;;;;;;;;;;;5091127;28;19925;-83
2023/01/15 09:18:00;;;;;;;;;;;;;;;;;;5088024;28;19924;-81
2023/01/15 09:20:27;;;;;;;;;;;;;;;;;;5090594;28;20403;-82
2023/01/15 09:23:00;;;;;;;;;;;;;;;;;;5091213;28;19924;-80
2023/01/15 09:25:33;;;;;;;;;;;;;;;;;;5090928;28;19950;-80
2023/01/15 09:28:05;;;;;;;;;;;;;;;;;;5087886;28;19931;-79
2023/01/15 09:30:33;;;;;;;;;;;;;;;;;;5092793;28;19923;-80
2023/01/15 09:33:01;;;;;;;;;;;;;;;;;;5075946;28;19928;-80
2023/01/15 09:35:33;;;;;;;;;;;;;;;;;;5091774;28;20372;-79
2023/01/15 09:38:06;;;;;;;;;;;;;;;;;;5091684;28;20423;-80
2023/01/15 09:40:33;;;;;;;;;;;;;;;;;;5080798;28;19998;-80
2023/01/15 09:43:06;;;;;;;;;;;;;;;;;;5091063;28;19932;-80
2023/01/15 09:45:33;;;;;;;;;;;;;;;;;;5078872;28;19947;-80
2023/01/15 09:48:01;;;;;;;;;;;;;;;;;;5092365;28;19928;-80
2023/01/15 09:50:28;;;;;;;;;;;;;;;;;;5088066;28;19932;-80
2023/01/15 09:52:56;;;;;;;;;;;;;;;;;;5092826;28;19932;-79
2023/01/15 09:55:23;;;;;;;;;;;;;;;;;;5093226;28;19931;-80
2023/01/15 09:57:51;;;;;;;;;;;;;;;;;;5083428;28;20496;-80
2023/01/15 10:00:18;;;;;;;;;;;;;;;;;;5090797;28;20281;-80
2023/01/15 10:02:46;;;;;;;;;;;;;;;;;;5088922;28;20308;-79
2023/01/15 10:05:13;;;;;;;;;;;;;;;;;;5089792;28;19925;-80
2023/01/15 10:07:41;;;;;;;;;;;;;;;;;;5093670;28;19951;-81
2023/01/15 10:10:09;;;;;;;;;;;;;;;;;;5086188;28;19924;-81
2023/01/15 10:12:38;;;;;;;;;;;;;;;;;;5092097;28;19931;-81
2023/01/15 10:15:06;;;;;;;;;;;;;;;;;;5099561;28;19924;-80
2023/01/15 10:17:38;;;;;;;;;;;;;;;;;;5089112;28;19928;-81
2023/01/15 10:20:11;;;;;;;;;;;;;;;;;;5081055;28;20384;-80
2023/01/15 10:22:38;;;;;;;;;;;;;;;;;;5083014;28;19961;-80
2023/01/15 10:25:06;;;;;;;;;;;;;;;;;;5088020;28;19924;-81
2023/01/15 10:27:35;;;;;;;;;;;;;;;;;;5087457;28;19939;-80
2023/01/15 10:30:02;;;;;;;;;;;;;;;;;;5093316;28;19939;-80
2023/01/15 10:32:30;;;;;;;;;;;;;;;;;;5090675;28;19924;-81
2023/01/15 10:34:58;;;;;;;;;;;;;;;;;;5094315;28;19932;-81
2023/01/15 10:37:25;;;;;;;;;;;;;;;;;;5093964;28;20316;-82
2023/01/15 10:39:58;;;;;;;;;;;;;;;;;;5089584;28;19931;-80
2023/01/15 10:42:31;;;;;;;;;;;;;;;;;;5089591;28;19924;-81
2023/01/15 10:45:03;;;;;;;;;;;;;;;;;;5085855;28;19928;-81
2023/01/15 10:47:36;;;;;;;;;;;;;;;;;;5089476;28;19965;-80
2023/01/15 10:50:08;;;;;;;;;;;;;;;;;;5088423;28;19928;-82
2023/01/15 10:52:36;;;;;;;;;;;;;;;;;;5089082;28;19932;-81
2023/01/15 10:55:08;;;;;;;;;;;;;;;;;;5087395;28;20322;-81
2023/01/15 10:57:36;;;;;;;;;;;;;;;;;;5083187;28;19923;-80
2023/01/15 11:00:08;;;;;;;;;;;;;;;;;;5078967;28;19932;-81
2023/01/15 11:02:36;;;;;;;;;;;;;;;;;;5073677;28;19924;-81
2023/01/15 11:05:03;;;;;;;;;;;;;;;;;;5075357;28;20384;-80
2023/01/15 11:07:31;;;;;;;;;;;;;;;;;;5074125;28;19931;-82
2023/01/15 11:09:58;;;;;;;;;;;;;;;;;;5067803;28;19932;-83
2023/01/15 11:20:42;;;;;;;;;;;;;;;;;;5074886;28;20411;-83
2023/01/15 11:23:09;;;;;;;;;;;;;;;;;;5075065;28;20288;-82
2023/01/15 11:25:38;;;;;;;;;;;;;;;;;;5076368;28;19931;-84
2023/01/15 11:28:05;;;;;;;;;;;;;;;;;;5074869;28;19931;-86
2023/01/15 11:30:33;;;;;;;;;;;;;;;;;;5074656;28;21253;-83
2023/01/15 11:33:05;;;;;;;;;;;;;;;;;;5071934;28;19932;-85
2023/01/15 11:35:38;;;;;;;;;;;;;;;;;;5072855;28;20662;-82
2023/01/15 11:38:06;;;;;;;;;;;;;;;;;;5072258;28;19932;-84
2023/01/15 11:40:33;;;;;;;;;;;;;;;;;;5070674;28;19947;-85
2023/01/15 11:51:21;;;;;;;;;;;;;;;;;;5074623;28;19955;-86
2023/01/15 11:53:54;;;;;;;;;;;;;;;;;;5077348;28;20014;-84
2023/01/15 11:56:22;;;;;;;;;;;;;;;;;;5076481;28;20293;-84
2023/01/15 11:58:49;;;;;;;;;;;;;;;;;;5073938;28;19928;-84
2023/01/15 12:01:17;;;;;;;;;;;;;;;;;;5065974;28;19947;-84
2023/01/15 12:03:45;;;;;;;;;;;;;;;;;;5074577;28;19932;-82
2023/01/15 12:06:17;;;;;;;;;;;;;;;;;;5072525;28;19924;-82
2023/01/15 12:08:50;;;;;;;;;;;;;;;;;;5070733;28;19935;-81
2023/01/15 12:11:23;;;;;;;;;;;;;;;;;;5068022;28;19954;-85
2023/01/15 12:13:50;;;;;;;;;;;;;;;;;;5071682;28;19932;-79
2023/01/15 12:16:18;;;;;;;;;;;;;;;;;;5069250;28;19932;-82
2023/01/15 12:18:50;;;;;;;;;;;;;;;;;;5045667;28;19932;-84
2023/01/15 12:21:18;;;;;;;;;;;;;;;;;;5061023;28;19931;-86
2023/01/15 12:23:45;;;;;;;;;;;;;;;;;;5064967;28;19932;-84
2023/01/15 12:26:16;;;;;;;;;;;;;;;;;;5061849;28;19939;-84
2023/01/15 12:28:48;;;;;;;;;;;;;;;;;;5068742;28;20655;-81
2023/01/15 12:31:17;;;;;;;;;;;;;;;;;;5060147;28;19936;-83
2023/01/15 12:33:45;;;;;;;;;;;;;;;;;;5076634;28;19932;-81
2023/01/15 12:36:12;;;;;;;;;;;;;;;;;;5067504;28;19932;-82
2023/01/15 12:38:40;;;;;;;;;;;;;;;;;;5070017;28;19932;-83
2023/01/15 12:41:07;;;;;;;;;;;;;;;;;;5070208;28;19924;-83
2023/01/15 12:46:27;;;;;;;;;;;;;;;;;;5071673;28;19932;-83
2023/01/15 12:49:02;;;;;;;;;;;;;;;;;;5065360;28;20399;-85
2023/01/15 12:51:34;;;;;;;;;;;;;;;;;;5066573;28;19932;-87
2023/01/15 12:54:07;;;;;;;;;;;;;;;;;;5071877;28;19939;-81
2023/01/15 12:56:39;;;;;;;;;;;;;;;;;;5066856;28;19932;-85
2023/01/15 12:59:12;;;;;;;;;;;;;;;;;;5068201;28;19939;-83
2023/01/15 13:01:44;;;;;;;;;;;;;;;;;;5065659;28;19928;-83
2023/01/15 13:04:12;;;;;;;;;;;;;;;;;;5071640;28;19932;-85
2023/01/15 13:06:39;;;;;;;;;;;;;;;;;;5075937;28;19935;-83
2023/01/15 13:09:07;;;;;;;;;;;;;;;;;;5063765;28;19932;-84
2023/01/15 13:11:34;;;;;;;;;;;;;;;;;;5079450;28;19932;-82
2023/01/15 13:14:02;;;;;;;;;;;;;;;;;;5067159;28;20451;-83
2023/01/15 13:16:29;;;;;;;;;;;;;;;;;;5069450;28;19932;-85
2023/01/15 13:19:02;;;;;;;;;;;;;;;;;;5065037;28;20304;-82
2023/01/15 13:21:29;;;;;;;;;;;;;;;;;;5069090;28;19932;-87
2023/01/15 13:23:57;;;;;;;;;;;;;;;;;;5073894;28;20304;-84
2023/01/15 13:26:29;;;;;;;;;;;;;;;;;;5072842;28;20612;-84
2023/01/15 13:28:57;;;;;;;;;;;;;;;;;;5065759;28;19936;-83
2023/01/15 13:31:25;;;;;;;;;;;;;;;;;;5070778;28;20862;-83
2023/01/15 13:33:57;;;;;;;;;;;;;;;;;;5067264;28;19932;-86
2023/01/15 13:36:25;;;;;;;;;;;;;;;;;;5066705;28;20288;-83
2023/01/15 13:38:53;;;;;;;;;;;;;;;;;;5069992;28;19932;-81
2023/01/15 13:44:07;;;;;;;;;;;;;;;;;;5068039;28;20031;-81
2023/01/15 13:46:34;;;;;;;;;;;;;;;;;;5067382;28;19932;-83
2023/01/15 13:49:04;;;;;;;;;;;;;;;;;;5069447;28;20572;-83
2023/01/15 13:51:31;;;;;;;;;;;;;;;;;;5075655;28;19932;-84
2023/01/15 13:53:59;;;;;;;;;;;;;;;;;;5064759;28;19943;-82
2023/01/15 13:56:26;;;;;;;;;;;;;;;;;;5064314;28;19932;-83
2023/01/15 13:58:54;;;;;;;;;;;;;;;;;;5065441;28;19939;-84
2023/01/15 14:01:21;;;;;;;;;;;;;;;;;;5038370;28;19924;-82
2023/01/15 14:03:49;;;;;;;;;;;;;;;;;;5067942;28;19932;-82
2023/01/15 14:06:16;;;;;;;;;;;;;;;;;;5059051;28;19939;-82
2023/01/15 14:08:44;;;;;;;;;;;;;;;;;;5061845;28;20592;-84
2023/01/15 14:11:12;;;;;;;;;;;;;;;;;;5066732;28;19943;-82
2023/01/15 14:13:43;;;;;;;;;;;;;;;;;;5067461;28;19939;-85
2023/01/15 14:16:16;;;;;;;;;;;;;;;;;;5067206;28;19932;-82
2023/01/15 14:18:48;;;;;;;;;;;;;;;;;;5071862;28;20400;-81
2023/01/15 14:21:16;;;;;;;;;;;;;;;;;;5063617;28;19935;-87
2023/01/15 14:23:43;;;;;;;;;;;;;;;;;;5073679;28;20528;-84
2023/01/15 14:26:11;;;;;;;;;;;;;;;;;;5069249;28;19932;-83
2023/01/15 14:28:43;;;;;;;;;;;;;;;;;;5066821;28;19932;-84
2023/01/15 14:31:16;;;;;;;;;;;;;;;;;;5069892;28;19932;-80
2023/01/15 14:33:48;;;;;;;;;;;;;;;;;;5070001;28;19932;-83
2023/01/15 14:36:16;;;;;;;;;;;;;;;;;;5076671;28;20386;-82
2023/01/15 14:38:43;;;;;;;;;;;;;;;;;;5067191;28;19932;-83
2023/01/15 14:41:16;;;;;;;;;;;;;;;;;;5076909;28;20212;-81
2023/01/15 14:43:42;;;;;;;;;;;;;;;;;;5072543;28;20435;-83
2023/01/15 14:46:10;;;;;;;;;;;;;;;;;;5068181;28;19939;-81
2023/01/15 14:48:42;;;;;;;;;;;;;;;;;;5070265;28;19932;-82
2023/01/15 14:51:10;;;;;;;;;;;;;;;;;;5068481;28;19946;-86
2023/01/15 14:53:38;;;;;;;;;;;;;;;;;;5066035;28;19939;-82
2023/01/15 14:56:05;;;;;;;;;;;;;;;;;;5069307;28;19932;-82
2023/01/15 15:01:18;;;;;;;;;;;;;;;;;;5031587;28;19932;-82
2023/01/15 15:03:45;;;;;;;;;;;;;;;;;;5065268;28;19932;-82
2023/01/15 15:06:13;;;;;;;;;;;;;;;;;;5066606;28;19932;-81
2023/01/15 15:08:40;;;;;;;;;;;;;;;;;;5072960;28;20384;-84
2023/01/15 15:12:17;;;;;;;;;;;;;;;;;;5071278;28;21377;-83
2023/01/15 15:14:03;;;;;;;;;;;;;;;;;;5066546;28;20679;-84
2023/01/15 15:16:35;;;;;;;;;;;;;;;;;;5082080;28;19970;-83
2023/01/15 15:19:08;;;;;;;;;;;;;;;;;;5068992;28;19943;-86
2023/01/15 15:21:35;;;;;;;;;;;;;;;;;;5069694;28;20991;-85
2023/01/15 15:24:03;;;;;;;;;;;;;;;;;;5069001;28;20329;-86
2023/01/15 15:26:35;;;;;;;;;;;;;;;;;;5068880;28;19939;-86
2023/01/15 15:29:03;;;;;;;;;;;;;;;;;;5075674;28;19932;-82
2023/01/15 15:31:30;;;;;;;;;;;;;;;;;;5081823;27;20524;-85
2023/01/15 15:33:58;;;;;;;;;;;;;;;;;;5070301;28;19931;-84
2023/01/15 15:36:25;;;;;;;;;;;;;;;;;;5066603;28;20581;-84
2023/01/15 15:38:53;;;;;;;;;;;;;;;;;;5065192;28;20388;-86
2023/01/15 15:49:47;;;;;;;;;;;;;;;;;;5064831;28;20423;-85
2023/01/15 15:52:15;;;;;;;;;;;;;;;;;;5066972;28;19939;-82
2023/01/15 15:54:42;;;;;;;;;;;;;;;;;;5068681;28;20557;-85
2023/01/15 15:57:15;;;;;;;;;;;;;;;;;;5071637;28;19932;-83
2023/01/15 15:59:42;;;;;;;;;;;;;;;;;;5039269;28;19933;-84
2023/01/15 16:02:10;;;;;;;;;;;;;;;;;;5076470;28;20018;-84
2023/01/15 16:04:38;;;;;;;;;;;;;;;;;;5064184;28;19939;-86
2023/01/15 16:07:05;;;;;;;;;;;;;;;;;;5064516;28;19932;-83
2023/01/15 16:09:38;;;;;;;;;;;;;;;;;;5068474;28;19931;-84
2023/01/15 16:12:06;;;;;;;;;;;;;;;;;;5066777;28;19939;-85
2023/01/15 16:14:33;;;;;;;;;;;;;;;;;;5068142;28;20968;-83
2023/01/15 16:17:01;;;;;;;;;;;;;;;;;;5063960;28;19963;-85
2023/01/15 16:19:28;;;;;;;;;;;;;;;;;;5068187;28;19947;-83
2023/01/15 16:22:01;;;;;;;;;;;;;;;;;;5064257;28;20538;-84
2023/01/15 16:24:28;;;;;;;;;;;;;;;;;;5064381;28;19932;-80
2023/01/15 16:26:56;;;;;;;;;;;;;;;;;;5068295;28;19943;-86
2023/01/15 16:29:23;;;;;;;;;;;;;;;;;;5067664;28;19955;-85
2023/01/15 16:31:58;;;;;;;;;;;;;;;;;;5082501;28;19927;-83
2023/01/15 16:34:30;;;;;;;;;;;;;;;;;;5070297;28;19932;-82
2023/01/15 16:37:03;;;;;;;;;;;;;;;;;;5074337;28;19932;-84
2023/01/15 16:39:35;;;;;;;;;;;;;;;;;;5067024;28;20502;-84
2023/01/15 16:42:03;;;;;;;;;;;;;;;;;;5064360;28;19943;-84
2023/01/15 16:44:30;;;;;;;;;;;;;;;;;;5062180;28;20277;-84
2023/01/15 16:46:58;;;;;;;;;;;;;;;;;;5066083;28;19932;-83
2023/01/15 16:49:25;;;;;;;;;;;;;;;;;;5066141;28;19932;-84
2023/01/15 16:51:53;;;;;;;;;;;;;;;;;;5066163;28;19932;-83
2023/01/15 16:54:21;;;;;;;;;;;;;;;;;;5066270;28;19961;-83
2023/01/15 16:56:48;;;;;;;;;;;;;;;;;;5071424;28;19932;-84
2023/01/15 16:59:16;;;;;;;;;;;;;;;;;;5061365;28;19932;-83
2023/01/15 17:01:44;;;;;;;;;;;;;;;;;;5038256;28;19932;-81
2023/01/15 17:04:12;;;;;;;;;;;;;;;;;;5061195;28;19932;-84
2023/01/15 17:06:39;;;;;;;;;;;;;;;;;;5068039;28;20632;-83
2023/01/15 17:09:07;;;;;;;;;;;;;;;;;;5061273;28;19932;-82
2023/01/15 17:11:40;;;;;;;;;;;;;;;;;;5060601;28;20659;-83
2023/01/15 17:14:12;;;;;;;;;;;;;;;;;;5061924;28;19932;-83
2023/01/15 17:16:45;;;;;;;;;;;;;;;;;;5064079;28;19935;-84
2023/01/15 17:19:12;;;;;;;;;;;;;;;;;;5065427;28;19940;-84
2023/01/15 17:21:46;;;;;;;;;;;;;;;;;;5067648;28;19939;-82
2023/01/15 17:24:13;;;;;;;;;;;;;;;;;;5072514;28;19936;-84
2023/01/15 17:26:46;;;;;;;;;;;;;;;;;;5069305;28;19936;-84
2023/01/15 17:29:13;;;;;;;;;;;;;;;;;;5066449;28;19932;-82
2023/01/15 17:31:46;;;;;;;;;;;;;;;;;;5064392;28;19939;-83
2023/01/15 17:34:13;;;;;;;;;;;;;;;;;;5069747;28;19932;-82
2023/01/15 17:36:41;;;;;;;;;;;;;;;;;;5068041;28;19986;-85
2023/01/15 17:39:14;;;;;;;;;;;;;;;;;;5074822;28;19940;-85
2023/01/15 17:41:46;;;;;;;;;;;;;;;;;;5065788;28;20096;-82
2023/01/15 17:44:19;;;;;;;;;;;;;;;;;;5063807;28;19931;-83
2023/01/15 17:46:46;;;;;;;;;;;;;;;;;;5061329;28;19932;-83
2023/01/15 17:49:14;;;;;;;;;;;;;;;;;;5066670;28;19952;-83
2023/01/15 17:51:41;;;;;;;;;;;;;;;;;;5064493;28;20022;-83
2023/01/15 18:05:24;;;;;;;;;;;;;;;;;;5066113;28;19931;-82
2023/01/15 18:05:29;;;;;;;;;;;;;;;;;;5065545;28;20493;-84
2023/01/15 18:07:56;;;;;;;;;;;;;;;;;;5068318;28;21814;-84